sensor_id;sensor_type;location;lat;lon;timestamp;P1;durP1;ratioP1;P2;durP2;ratioP2
44048;SDS011;29717;47.028;15.470;2022-12-07T00:01:51;16.87;;;14.03;;
44048;SDS011;29717;47.028;15.470;2022-12-07T00:04:18;18.83;;;14.40;;
44048;SDS011;29717;47.028;15.470;2022-12-07T00:06:46;17.33;;;13.70;;
44048;SDS011;29717;47.028;15.470;2022-12-07T00:09:14;16.97;;;13.80;;
44048;SDS011;29717;47.028;15.470;2022-12-07T00:11:41;18.57;;;14.20;;
44048;SDS011;29717;47.028;15.470;2022-12-07T00:14:10;20.10;;;13.83;;
44048;SDS011;29717;47.028;15.470;2022-12-07T00:16:39;18.10;;;14.83;;
44048;SDS011;29717;47.028;15.470;2022-12-07T00:19:06;18.00;;;13.73;;
44048;SDS011;29717;47.028;15.470;2022-12-07T00:21:33;16.07;;;12.47;;
44048;SDS011;29717;47.028;15.470;2022-12-07T00:24:01;18.23;;;14.10;;
44048;SDS011;29717;47.028;15.470;2022-12-07T00:26:29;18.00;;;13.57;;
44048;SDS011;29717;47.028;15.470;2022-12-07T00:28:56;18.73;;;13.90;;
44048;SDS011;29717;47.028;15.470;2022-12-07T00:31:25;17.20;;;13.93;;
44048;SDS011;29717;47.028;15.470;2022-12-07T00:33:53;18.60;;;13.63;;
44048;SDS011;29717;47.028;15.470;2022-12-07T00:36:20;17.47;;;13.57;;
44048;SDS011;29717;47.028;15.470;2022-12-07T00:38:47;18.07;;;14.13;;
44048;SDS011;29717;47.028;15.470;2022-12-07T00:41:14;19.23;;;15.30;;
44048;SDS011;29717;47.028;15.470;2022-12-07T00:43:42;21.27;;;15.43;;
44048;SDS011;29717;47.028;15.470;2022-12-07T00:46:09;17.63;;;14.30;;
44048;SDS011;29717;47.028;15.470;2022-12-07T00:48:36;20.30;;;16.03;;
44048;SDS011;29717;47.028;15.470;2022-12-07T00:51:04;20.07;;;15.67;;
44048;SDS011;29717;47.028;15.470;2022-12-07T00:53:33;19.97;;;15.37;;
44048;SDS011;29717;47.028;15.470;2022-12-07T00:56:04;20.20;;;15.13;;
44048;SDS011;29717;47.028;15.470;2022-12-07T00:58:31;23.17;;;15.50;;
44048;SDS011;29717;47.028;15.470;2022-12-07T01:00:59;18.53;;;15.10;;
44048;SDS011;29717;47.028;15.470;2022-12-07T01:03:26;21.27;;;16.57;;
44048;SDS011;29717;47.028;15.470;2022-12-07T01:05:53;23.27;;;16.43;;
44048;SDS011;29717;47.028;15.470;2022-12-07T01:08:22;27.33;;;13.97;;
44048;SDS011;29717;47.028;15.470;2022-12-07T01:10:56;31.00;;;14.27;;
44048;SDS011;29717;47.028;15.470;2022-12-07T01:13:23;35.63;;;14.67;;
44048;SDS011;29717;47.028;15.470;2022-12-07T01:15:50;28.90;;;14.90;;
44048;SDS011;29717;47.028;15.470;2022-12-07T01:18:17;26.33;;;14.37;;
44048;SDS011;29717;47.028;15.470;2022-12-07T01:20:43;21.90;;;14.80;;
44048;SDS011;29717;47.028;15.470;2022-12-07T01:23:10;33.97;;;14.63;;
44048;SDS011;29717;47.028;15.470;2022-12-07T01:25:38;40.33;;;15.30;;
44048;SDS011;29717;47.028;15.470;2022-12-07T01:28:05;58.33;;;15.60;;
44048;SDS011;29717;47.028;15.470;2022-12-07T01:30:31;40.20;;;15.33;;
44048;SDS011;29717;47.028;15.470;2022-12-07T01:32:58;23.07;;;15.27;;
44048;SDS011;29717;47.028;15.470;2022-12-07T01:35:25;30.50;;;14.90;;
44048;SDS011;29717;47.028;15.470;2022-12-07T01:37:51;41.10;;;15.27;;
44048;SDS011;29717;47.028;15.470;2022-12-07T01:40:18;64.20;;;16.33;;
44048;SDS011;29717;47.028;15.470;2022-12-07T01:42:46;29.53;;;15.37;;
44048;SDS011;29717;47.028;15.470;2022-12-07T01:45:31;28.57;;;15.00;;
44048;SDS011;29717;47.028;15.470;2022-12-07T01:48:00;27.23;;;14.50;;
44048;SDS011;29717;47.028;15.470;2022-12-07T01:50:28;32.30;;;15.47;;
44048;SDS011;29717;47.028;15.470;2022-12-07T01:52:57;32.90;;;15.43;;
44048;SDS011;29717;47.028;15.470;2022-12-07T01:55:25;26.87;;;14.70;;
44048;SDS011;29717;47.028;15.470;2022-12-07T01:57:54;40.57;;;15.60;;
44048;SDS011;29717;47.028;15.470;2022-12-07T02:00:22;30.57;;;14.30;;
44048;SDS011;29717;47.028;15.470;2022-12-07T02:02:50;21.30;;;14.77;;
44048;SDS011;29717;47.028;15.470;2022-12-07T02:05:18;30.50;;;15.07;;
44048;SDS011;29717;47.028;15.470;2022-12-07T02:07:45;26.60;;;15.43;;
44048;SDS011;29717;47.028;15.470;2022-12-07T02:10:14;20.23;;;14.97;;
44048;SDS011;29717;47.028;15.470;2022-12-07T02:12:41;21.23;;;15.27;;
44048;SDS011;29717;47.028;15.470;2022-12-07T02:15:09;25.07;;;15.13;;
44048;SDS011;29717;47.028;15.470;2022-12-07T02:17:37;37.13;;;17.27;;
44048;SDS011;29717;47.028;15.470;2022-12-07T02:20:11;21.80;;;16.00;;
44048;SDS011;29717;47.028;15.470;2022-12-07T02:22:54;47.90;;;16.40;;
44048;SDS011;29717;47.028;15.470;2022-12-07T02:25:30;22.33;;;14.83;;
44048;SDS011;29717;47.028;15.470;2022-12-07T02:28:00;24.60;;;16.93;;
44048;SDS011;29717;47.028;15.470;2022-12-07T02:30:31;23.23;;;16.23;;
44048;SDS011;29717;47.028;15.470;2022-12-07T02:32:59;23.47;;;17.03;;
44048;SDS011;29717;47.028;15.470;2022-12-07T02:35:28;26.93;;;16.17;;
44048;SDS011;29717;47.028;15.470;2022-12-07T02:37:58;23.67;;;17.07;;
44048;SDS011;29717;47.028;15.470;2022-12-07T02:40:29;25.67;;;17.77;;
44048;SDS011;29717;47.028;15.470;2022-12-07T02:42:58;21.13;;;15.77;;
44048;SDS011;29717;47.028;15.470;2022-12-07T02:45:26;33.30;;;17.13;;
44048;SDS011;29717;47.028;15.470;2022-12-07T02:47:56;28.27;;;15.73;;
44048;SDS011;29717;47.028;15.470;2022-12-07T02:50:25;31.60;;;15.43;;
44048;SDS011;29717;47.028;15.470;2022-12-07T02:52:52;26.50;;;14.80;;
44048;SDS011;29717;47.028;15.470;2022-12-07T02:55:20;27.53;;;16.30;;
44048;SDS011;29717;47.028;15.470;2022-12-07T02:57:53;24.10;;;17.43;;
44048;SDS011;29717;47.028;15.470;2022-12-07T03:00:21;24.90;;;17.73;;
44048;SDS011;29717;47.028;15.470;2022-12-07T03:02:50;38.73;;;17.70;;
44048;SDS011;29717;47.028;15.470;2022-12-07T03:05:24;27.03;;;17.00;;
44048;SDS011;29717;47.028;15.470;2022-12-07T03:07:58;23.47;;;16.30;;
44048;SDS011;29717;47.028;15.470;2022-12-07T03:10:28;24.03;;;16.50;;
44048;SDS011;29717;47.028;15.470;2022-12-07T03:13:01;24.83;;;15.97;;
44048;SDS011;29717;47.028;15.470;2022-12-07T03:15:30;23.53;;;16.43;;
44048;SDS011;29717;47.028;15.470;2022-12-07T03:17:58;73.20;;;18.87;;
44048;SDS011;29717;47.028;15.470;2022-12-07T03:20:27;27.30;;;15.87;;
44048;SDS011;29717;47.028;15.470;2022-12-07T03:22:55;28.17;;;17.70;;
44048;SDS011;29717;47.028;15.470;2022-12-07T03:25:23;24.47;;;16.97;;
44048;SDS011;29717;47.028;15.470;2022-12-07T03:27:52;24.13;;;16.30;;
44048;SDS011;29717;47.028;15.470;2022-12-07T03:30:22;21.93;;;15.47;;
44048;SDS011;29717;47.028;15.470;2022-12-07T03:32:50;34.57;;;18.00;;
44048;SDS011;29717;47.028;15.470;2022-12-07T03:35:21;27.40;;;16.83;;
44048;SDS011;29717;47.028;15.470;2022-12-07T03:37:51;25.47;;;17.10;;
44048;SDS011;29717;47.028;15.470;2022-12-07T03:40:21;46.13;;;16.27;;
44048;SDS011;29717;47.028;15.470;2022-12-07T03:42:50;25.90;;;16.00;;
44048;SDS011;29717;47.028;15.470;2022-12-07T03:45:18;23.07;;;14.90;;
44048;SDS011;29717;47.028;15.470;2022-12-07T03:47:48;27.40;;;15.53;;
44048;SDS011;29717;47.028;15.470;2022-12-07T03:50:20;26.10;;;14.83;;
44048;SDS011;29717;47.028;15.470;2022-12-07T03:52:51;23.43;;;14.47;;
44048;SDS011;29717;47.028;15.470;2022-12-07T03:55:22;22.60;;;14.27;;
44048;SDS011;29717;47.028;15.470;2022-12-07T03:57:51;23.67;;;15.17;;
44048;SDS011;29717;47.028;15.470;2022-12-07T04:00:19;23.83;;;14.80;;
44048;SDS011;29717;47.028;15.470;2022-12-07T04:02:46;24.07;;;14.00;;
44048;SDS011;29717;47.028;15.470;2022-12-07T04:05:13;25.80;;;15.13;;
44048;SDS011;29717;47.028;15.470;2022-12-07T04:07:40;23.97;;;15.23;;
44048;SDS011;29717;47.028;15.470;2022-12-07T04:10:08;26.80;;;16.87;;
44048;SDS011;29717;47.028;15.470;2022-12-07T04:12:36;23.50;;;15.30;;
44048;SDS011;29717;47.028;15.470;2022-12-07T04:15:04;26.50;;;16.80;;
44048;SDS011;29717;47.028;15.470;2022-12-07T04:17:31;34.53;;;17.33;;
44048;SDS011;29717;47.028;15.470;2022-12-07T04:19:58;26.63;;;16.40;;
44048;SDS011;29717;47.028;15.470;2022-12-07T04:22:24;32.90;;;16.17;;
44048;SDS011;29717;47.028;15.470;2022-12-07T04:24:51;30.17;;;16.13;;
44048;SDS011;29717;47.028;15.470;2022-12-07T04:27:18;24.33;;;16.13;;
44048;SDS011;29717;47.028;15.470;2022-12-07T04:29:46;23.80;;;16.40;;
44048;SDS011;29717;47.028;15.470;2022-12-07T04:32:13;27.10;;;15.67;;
44048;SDS011;29717;47.028;15.470;2022-12-07T04:34:40;25.53;;;16.20;;
44048;SDS011;29717;47.028;15.470;2022-12-07T04:42:49;24.93;;;16.13;;
44048;SDS011;29717;47.028;15.470;2022-12-07T04:45:18;24.63;;;15.57;;
44048;SDS011;29717;47.028;15.470;2022-12-07T04:47:45;23.30;;;15.20;;
44048;SDS011;29717;47.028;15.470;2022-12-07T04:50:11;25.00;;;16.00;;
44048;SDS011;29717;47.028;15.470;2022-12-07T04:52:39;26.70;;;16.60;;
44048;SDS011;29717;47.028;15.470;2022-12-07T04:55:07;23.97;;;16.03;;
44048;SDS011;29717;47.028;15.470;2022-12-07T04:57:33;26.20;;;15.63;;
44048;SDS011;29717;47.028;15.470;2022-12-07T05:00:00;38.67;;;14.70;;
44048;SDS011;29717;47.028;15.470;2022-12-07T05:02:28;18.63;;;12.63;;
44048;SDS011;29717;47.028;15.470;2022-12-07T05:04:55;18.83;;;11.73;;
44048;SDS011;29717;47.028;15.470;2022-12-07T05:07:22;21.20;;;11.87;;
44048;SDS011;29717;47.028;15.470;2022-12-07T05:09:49;21.47;;;12.00;;
44048;SDS011;29717;47.028;15.470;2022-12-07T05:12:16;21.97;;;12.40;;
44048;SDS011;29717;47.028;15.470;2022-12-07T05:14:42;30.57;;;12.50;;
44048;SDS011;29717;47.028;15.470;2022-12-07T05:17:09;24.47;;;12.63;;
44048;SDS011;29717;47.028;15.470;2022-12-07T05:19:38;24.87;;;19.47;;
44048;SDS011;29717;47.028;15.470;2022-12-07T05:22:05;19.23;;;12.13;;
44048;SDS011;29717;47.028;15.470;2022-12-07T05:24:31;31.97;;;12.90;;
44048;SDS011;29717;47.028;15.470;2022-12-07T05:26:58;22.07;;;12.30;;
44048;SDS011;29717;47.028;15.470;2022-12-07T05:29:25;31.40;;;13.33;;
44048;SDS011;29717;47.028;15.470;2022-12-07T05:31:51;25.60;;;13.87;;
44048;SDS011;29717;47.028;15.470;2022-12-07T05:34:18;23.03;;;13.93;;
44048;SDS011;29717;47.028;15.470;2022-12-07T05:36:46;39.87;;;14.90;;
44048;SDS011;29717;47.028;15.470;2022-12-07T05:39:14;43.30;;;15.00;;
44048;SDS011;29717;47.028;15.470;2022-12-07T05:41:41;18.40;;;13.57;;
44048;SDS011;29717;47.028;15.470;2022-12-07T05:44:25;22.53;;;14.00;;
44048;SDS011;29717;47.028;15.470;2022-12-07T05:46:52;25.50;;;13.60;;
44048;SDS011;29717;47.028;15.470;2022-12-07T05:49:19;24.73;;;12.27;;
44048;SDS011;29717;47.028;15.470;2022-12-07T05:51:47;19.03;;;13.30;;
44048;SDS011;29717;47.028;15.470;2022-12-07T05:54:14;18.40;;;12.07;;
44048;SDS011;29717;47.028;15.470;2022-12-07T05:56:41;19.67;;;13.70;;
44048;SDS011;29717;47.028;15.470;2022-12-07T05:59:07;15.77;;;12.93;;
44048;SDS011;29717;47.028;15.470;2022-12-07T06:01:50;18.17;;;12.17;;
44048;SDS011;29717;47.028;15.470;2022-12-07T06:04:17;19.77;;;12.50;;
44048;SDS011;29717;47.028;15.470;2022-12-07T06:06:45;19.23;;;13.23;;
44048;SDS011;29717;47.028;15.470;2022-12-07T06:09:13;22.57;;;12.80;;
44048;SDS011;29717;47.028;15.470;2022-12-07T06:11:40;18.47;;;13.50;;
44048;SDS011;29717;47.028;15.470;2022-12-07T06:14:24;20.27;;;13.43;;
44048;SDS011;29717;47.028;15.470;2022-12-07T06:16:51;20.50;;;13.77;;
44048;SDS011;29717;47.028;15.470;2022-12-07T06:19:18;17.53;;;12.90;;
44048;SDS011;29717;47.028;15.470;2022-12-07T06:21:45;18.33;;;13.47;;
44048;SDS011;29717;47.028;15.470;2022-12-07T06:24:13;19.60;;;13.43;;
44048;SDS011;29717;47.028;15.470;2022-12-07T06:26:40;17.80;;;13.23;;
44048;SDS011;29717;47.028;15.470;2022-12-07T06:29:08;18.73;;;13.30;;
44048;SDS011;29717;47.028;15.470;2022-12-07T06:31:34;20.97;;;14.00;;
44048;SDS011;29717;47.028;15.470;2022-12-07T06:34:02;20.37;;;13.77;;
44048;SDS011;29717;47.028;15.470;2022-12-07T06:36:32;18.00;;;14.13;;
44048;SDS011;29717;47.028;15.470;2022-12-07T06:38:59;23.30;;;13.43;;
44048;SDS011;29717;47.028;15.470;2022-12-07T06:41:28;20.90;;;13.97;;
44048;SDS011;29717;47.028;15.470;2022-12-07T06:43:54;23.67;;;13.93;;
44048;SDS011;29717;47.028;15.470;2022-12-07T06:46:21;23.43;;;13.83;;
44048;SDS011;29717;47.028;15.470;2022-12-07T06:48:48;25.57;;;14.37;;
44048;SDS011;29717;47.028;15.470;2022-12-07T06:51:15;20.37;;;13.77;;
44048;SDS011;29717;47.028;15.470;2022-12-07T06:53:41;25.70;;;14.20;;
44048;SDS011;29717;47.028;15.470;2022-12-07T06:56:08;33.93;;;14.70;;
44048;SDS011;29717;47.028;15.470;2022-12-07T06:58:36;21.03;;;15.33;;
44048;SDS011;29717;47.028;15.470;2022-12-07T07:01:07;35.13;;;14.40;;
44048;SDS011;29717;47.028;15.470;2022-12-07T07:03:34;28.17;;;14.30;;
44048;SDS011;29717;47.028;15.470;2022-12-07T07:06:01;23.40;;;13.53;;
44048;SDS011;29717;47.028;15.470;2022-12-07T07:08:28;23.97;;;12.87;;
44048;SDS011;29717;47.028;15.470;2022-12-07T07:10:56;20.50;;;13.00;;
44048;SDS011;29717;47.028;15.470;2022-12-07T07:13:23;23.77;;;15.37;;
44048;SDS011;29717;47.028;15.470;2022-12-07T07:15:51;24.10;;;14.97;;
44048;SDS011;29717;47.028;15.470;2022-12-07T07:18:18;22.47;;;15.27;;
44048;SDS011;29717;47.028;15.470;2022-12-07T07:20:45;34.70;;;14.43;;
44048;SDS011;29717;47.028;15.470;2022-12-07T07:23:12;27.60;;;15.57;;
44048;SDS011;29717;47.028;15.470;2022-12-07T07:25:39;24.27;;;15.00;;
44048;SDS011;29717;47.028;15.470;2022-12-07T07:28:05;27.07;;;15.83;;
44048;SDS011;29717;47.028;15.470;2022-12-07T07:30:32;25.73;;;15.27;;
44048;SDS011;29717;47.028;15.470;2022-12-07T07:33:01;34.83;;;15.57;;
44048;SDS011;29717;47.028;15.470;2022-12-07T07:35:28;27.17;;;16.53;;
44048;SDS011;29717;47.028;15.470;2022-12-07T07:37:56;28.20;;;16.07;;
44048;SDS011;29717;47.028;15.470;2022-12-07T07:40:23;25.33;;;15.63;;
44048;SDS011;29717;47.028;15.470;2022-12-07T07:42:51;21.00;;;15.23;;
44048;SDS011;29717;47.028;15.470;2022-12-07T07:45:18;23.37;;;15.90;;
44048;SDS011;29717;47.028;15.470;2022-12-07T07:47:45;25.07;;;15.97;;
44048;SDS011;29717;47.028;15.470;2022-12-07T07:50:14;22.90;;;14.03;;
44048;SDS011;29717;47.028;15.470;2022-12-07T07:52:41;24.57;;;15.13;;
44048;SDS011;29717;47.028;15.470;2022-12-07T07:55:08;26.73;;;15.70;;
44048;SDS011;29717;47.028;15.470;2022-12-07T07:57:35;24.83;;;14.73;;
44048;SDS011;29717;47.028;15.470;2022-12-07T08:00:03;22.87;;;15.07;;
44048;SDS011;29717;47.028;15.470;2022-12-07T08:02:30;24.20;;;15.30;;
44048;SDS011;29717;47.028;15.470;2022-12-07T08:04:57;23.50;;;14.13;;
44048;SDS011;29717;47.028;15.470;2022-12-07T08:07:26;23.10;;;15.60;;
44048;SDS011;29717;47.028;15.470;2022-12-07T08:09:53;25.73;;;15.97;;
44048;SDS011;29717;47.028;15.470;2022-12-07T08:12:20;22.40;;;15.97;;
44048;SDS011;29717;47.028;15.470;2022-12-07T08:14:47;21.43;;;15.20;;
44048;SDS011;29717;47.028;15.470;2022-12-07T08:17:14;21.37;;;15.13;;
44048;SDS011;29717;47.028;15.470;2022-12-07T08:19:40;25.20;;;15.30;;
44048;SDS011;29717;47.028;15.470;2022-12-07T08:22:07;20.80;;;15.73;;
44048;SDS011;29717;47.028;15.470;2022-12-07T08:24:36;20.57;;;15.00;;
44048;SDS011;29717;47.028;15.470;2022-12-07T08:27:03;23.20;;;15.90;;
44048;SDS011;29717;47.028;15.470;2022-12-07T08:29:30;23.77;;;14.97;;
44048;SDS011;29717;47.028;15.470;2022-12-07T08:31:57;21.07;;;15.07;;
44048;SDS011;29717;47.028;15.470;2022-12-07T08:34:25;28.23;;;15.87;;
44048;SDS011;29717;47.028;15.470;2022-12-07T08:36:52;21.30;;;14.87;;
44048;SDS011;29717;47.028;15.470;2022-12-07T08:39:19;20.30;;;14.33;;
44048;SDS011;29717;47.028;15.470;2022-12-07T08:41:48;20.90;;;15.07;;
44048;SDS011;29717;47.028;15.470;2022-12-07T08:44:15;22.23;;;14.80;;
44048;SDS011;29717;47.028;15.470;2022-12-07T08:46:42;23.57;;;15.90;;
44048;SDS011;29717;47.028;15.470;2022-12-07T08:49:12;23.43;;;16.07;;
44048;SDS011;29717;47.028;15.470;2022-12-07T08:51:39;23.20;;;16.00;;
44048;SDS011;29717;47.028;15.470;2022-12-07T08:54:07;24.90;;;16.23;;
44048;SDS011;29717;47.028;15.470;2022-12-07T08:56:35;23.27;;;15.90;;
44048;SDS011;29717;47.028;15.470;2022-12-07T08:59:04;24.77;;;15.73;;
44048;SDS011;29717;47.028;15.470;2022-12-07T09:01:31;25.20;;;16.93;;
44048;SDS011;29717;47.028;15.470;2022-12-07T09:03:58;23.40;;;15.53;;
44048;SDS011;29717;47.028;15.470;2022-12-07T09:06:25;21.23;;;14.63;;
44048;SDS011;29717;47.028;15.470;2022-12-07T09:08:53;21.07;;;15.03;;
44048;SDS011;29717;47.028;15.470;2022-12-07T09:11:21;20.27;;;15.50;;
44048;SDS011;29717;47.028;15.470;2022-12-07T09:13:47;20.90;;;16.00;;
44048;SDS011;29717;47.028;15.470;2022-12-07T09:16:16;20.40;;;14.77;;
44048;SDS011;29717;47.028;15.470;2022-12-07T09:18:43;19.77;;;14.57;;
44048;SDS011;29717;47.028;15.470;2022-12-07T09:21:10;22.47;;;15.63;;
44048;SDS011;29717;47.028;15.470;2022-12-07T09:23:37;26.27;;;15.97;;
44048;SDS011;29717;47.028;15.470;2022-12-07T09:26:04;23.23;;;16.30;;
44048;SDS011;29717;47.028;15.470;2022-12-07T09:28:32;23.37;;;15.73;;
44048;SDS011;29717;47.028;15.470;2022-12-07T09:30:59;22.83;;;15.10;;
44048;SDS011;29717;47.028;15.470;2022-12-07T09:33:27;22.53;;;15.93;;
44048;SDS011;29717;47.028;15.470;2022-12-07T09:35:54;24.67;;;15.87;;
44048;SDS011;29717;47.028;15.470;2022-12-07T09:38:21;21.80;;;15.03;;
44048;SDS011;29717;47.028;15.470;2022-12-07T09:40:49;23.17;;;15.63;;
44048;SDS011;29717;47.028;15.470;2022-12-07T09:43:17;25.10;;;16.73;;
44048;SDS011;29717;47.028;15.470;2022-12-07T09:45:45;20.90;;;14.50;;
44048;SDS011;29717;47.028;15.470;2022-12-07T09:48:15;23.03;;;15.33;;
44048;SDS011;29717;47.028;15.470;2022-12-07T09:50:45;25.03;;;16.83;;
44048;SDS011;29717;47.028;15.470;2022-12-07T09:53:13;30.67;;;16.27;;
44048;SDS011;29717;47.028;15.470;2022-12-07T09:55:41;27.80;;;16.67;;
44048;SDS011;29717;47.028;15.470;2022-12-07T09:58:10;25.77;;;15.80;;
44048;SDS011;29717;47.028;15.470;2022-12-07T10:00:39;26.67;;;17.73;;
44048;SDS011;29717;47.028;15.470;2022-12-07T10:03:07;24.10;;;17.07;;
44048;SDS011;29717;47.028;15.470;2022-12-07T10:05:36;25.23;;;17.27;;
44048;SDS011;29717;47.028;15.470;2022-12-07T10:08:07;23.67;;;16.53;;
44048;SDS011;29717;47.028;15.470;2022-12-07T10:10:36;24.07;;;16.50;;
44048;SDS011;29717;47.028;15.470;2022-12-07T10:13:04;26.63;;;17.60;;
44048;SDS011;29717;47.028;15.470;2022-12-07T10:18:27;25.70;;;16.60;;
44048;SDS011;29717;47.028;15.470;2022-12-07T10:21:00;26.20;;;17.43;;
44048;SDS011;29717;47.028;15.470;2022-12-07T10:23:29;29.20;;;18.10;;
44048;SDS011;29717;47.028;15.470;2022-12-07T10:25:56;31.37;;;18.70;;
44048;SDS011;29717;47.028;15.470;2022-12-07T10:28:23;28.73;;;17.40;;
44048;SDS011;29717;47.028;15.470;2022-12-07T10:30:54;30.67;;;17.60;;
44048;SDS011;29717;47.028;15.470;2022-12-07T10:33:28;24.87;;;17.53;;
44048;SDS011;29717;47.028;15.470;2022-12-07T10:35:55;25.13;;;17.33;;
44048;SDS011;29717;47.028;15.470;2022-12-07T10:38:22;25.67;;;17.50;;
44048;SDS011;29717;47.028;15.470;2022-12-07T10:40:54;23.47;;;16.70;;
44048;SDS011;29717;47.028;15.470;2022-12-07T10:43:29;27.43;;;15.73;;
44048;SDS011;29717;47.028;15.470;2022-12-07T10:46:01;24.23;;;17.40;;
44048;SDS011;29717;47.028;15.470;2022-12-07T10:48:34;28.23;;;17.67;;
44048;SDS011;29717;47.028;15.470;2022-12-07T10:51:05;26.30;;;17.03;;
44048;SDS011;29717;47.028;15.470;2022-12-07T10:53:41;23.63;;;16.50;;
44048;SDS011;29717;47.028;15.470;2022-12-07T10:56:19;23.00;;;16.63;;
44048;SDS011;29717;47.028;15.470;2022-12-07T10:58:53;23.03;;;16.67;;
44048;SDS011;29717;47.028;15.470;2022-12-07T11:01:23;21.70;;;15.83;;
44048;SDS011;29717;47.028;15.470;2022-12-07T11:03:55;21.80;;;15.53;;
44048;SDS011;29717;47.028;15.470;2022-12-07T11:06:29;25.90;;;17.07;;
44048;SDS011;29717;47.028;15.470;2022-12-07T11:11:44;23.53;;;16.37;;
44048;SDS011;29717;47.028;15.470;2022-12-07T11:14:15;27.23;;;15.20;;
44048;SDS011;29717;47.028;15.470;2022-12-07T11:16:52;21.65;;;15.13;;
44048;SDS011;29717;47.028;15.470;2022-12-07T11:19:27;20.60;;;15.40;;
44048;SDS011;29717;47.028;15.470;2022-12-07T11:21:56;24.42;;;15.82;;
44048;SDS011;29717;47.028;15.470;2022-12-07T11:24:25;18.92;;;14.18;;
44048;SDS011;29717;47.028;15.470;2022-12-07T11:27:01;21.27;;;14.43;;
44048;SDS011;29717;47.028;15.470;2022-12-07T11:29:35;19.27;;;14.82;;
44048;SDS011;29717;47.028;15.470;2022-12-07T11:32:09;18.45;;;13.27;;
44048;SDS011;29717;47.028;15.470;2022-12-07T11:34:42;20.77;;;13.77;;
44048;SDS011;29717;47.028;15.470;2022-12-07T11:37:12;15.88;;;13.68;;
44048;SDS011;29717;47.028;15.470;2022-12-07T11:39:41;18.33;;;14.48;;
44048;SDS011;29717;47.028;15.470;2022-12-07T11:42:14;18.83;;;14.55;;
44048;SDS011;29717;47.028;15.470;2022-12-07T11:44:44;19.42;;;13.80;;
44048;SDS011;29717;47.028;15.470;2022-12-07T11:47:14;17.98;;;13.07;;
44048;SDS011;29717;47.028;15.470;2022-12-07T11:49:44;19.00;;;14.45;;
44048;SDS011;29717;47.028;15.470;2022-12-07T11:52:17;17.67;;;14.30;;
44048;SDS011;29717;47.028;15.470;2022-12-07T11:54:44;21.00;;;15.23;;
44048;SDS011;29717;47.028;15.470;2022-12-07T11:57:14;17.25;;;14.43;;
44048;SDS011;29717;47.028;15.470;2022-12-07T11:59:43;22.27;;;14.27;;
44048;SDS011;29717;47.028;15.470;2022-12-07T12:02:13;19.60;;;14.23;;
44048;SDS011;29717;47.028;15.470;2022-12-07T12:07:32;22.10;;;14.73;;
44048;SDS011;29717;47.028;15.470;2022-12-07T12:10:00;18.40;;;15.00;;
44048;SDS011;29717;47.028;15.470;2022-12-07T12:12:53;20.92;;;14.77;;
44048;SDS011;29717;47.028;15.470;2022-12-07T12:15:28;17.73;;;14.15;;
44048;SDS011;29717;47.028;15.470;2022-12-07T12:18:02;19.55;;;14.05;;
44048;SDS011;29717;47.028;15.470;2022-12-07T12:20:32;20.92;;;14.73;;
44048;SDS011;29717;47.028;15.470;2022-12-07T12:23:05;15.52;;;12.98;;
44048;SDS011;29717;47.028;15.470;2022-12-07T12:25:35;21.80;;;13.27;;
44048;SDS011;29717;47.028;15.470;2022-12-07T12:28:05;19.02;;;13.38;;
44048;SDS011;29717;47.028;15.470;2022-12-07T12:30:34;16.77;;;13.30;;
44048;SDS011;29717;47.028;15.470;2022-12-07T12:33:01;20.90;;;14.23;;
44048;SDS011;29717;47.028;15.470;2022-12-07T12:35:30;16.63;;;13.15;;
44048;SDS011;29717;47.028;15.470;2022-12-07T12:40:43;21.80;;;13.70;;
44048;SDS011;29717;47.028;15.470;2022-12-07T12:48:38;18.55;;;13.20;;
44048;SDS011;29717;47.028;15.470;2022-12-07T12:53:50;21.58;;;13.02;;
44048;SDS011;29717;47.028;15.470;2022-12-07T12:56:26;14.38;;;12.52;;
44048;SDS011;29717;47.028;15.470;2022-12-07T13:01:48;16.45;;;13.35;;
44048;SDS011;29717;47.028;15.470;2022-12-07T13:04:24;17.80;;;12.60;;
44048;SDS011;29717;47.028;15.470;2022-12-07T13:06:52;15.40;;;12.70;;
44048;SDS011;29717;47.028;15.470;2022-12-07T13:09:20;16.58;;;13.43;;
44048;SDS011;29717;47.028;15.470;2022-12-07T13:11:48;18.80;;;12.88;;
44048;SDS011;29717;47.028;15.470;2022-12-07T13:17:01;20.55;;;13.25;;
44048;SDS011;29717;47.028;15.470;2022-12-07T13:22:40;15.77;;;13.10;;
44048;SDS011;29717;47.028;15.470;2022-12-07T13:25:08;21.08;;;14.32;;
44048;SDS011;29717;47.028;15.470;2022-12-07T13:27:37;18.77;;;13.35;;
44048;SDS011;29717;47.028;15.470;2022-12-07T13:30:07;18.63;;;13.93;;
44048;SDS011;29717;47.028;15.470;2022-12-07T13:32:38;21.75;;;14.60;;
44048;SDS011;29717;47.028;15.470;2022-12-07T13:37:48;20.63;;;14.70;;
44048;SDS011;29717;47.028;15.470;2022-12-07T13:40:17;16.98;;;14.88;;
44048;SDS011;29717;47.028;15.470;2022-12-07T13:42:44;19.85;;;14.45;;
44048;SDS011;29717;47.028;15.470;2022-12-07T13:45:20;20.43;;;14.80;;
44048;SDS011;29717;47.028;15.470;2022-12-07T13:47:48;20.95;;;14.95;;
44048;SDS011;29717;47.028;15.470;2022-12-07T13:50:22;18.63;;;15.05;;
44048;SDS011;29717;47.028;15.470;2022-12-07T13:52:54;18.13;;;14.50;;
44048;SDS011;29717;47.028;15.470;2022-12-07T13:55:21;23.75;;;14.90;;
44048;SDS011;29717;47.028;15.470;2022-12-07T13:57:49;17.77;;;14.93;;
44048;SDS011;29717;47.028;15.470;2022-12-07T14:00:17;20.10;;;15.23;;
44048;SDS011;29717;47.028;15.470;2022-12-07T14:02:54;22.90;;;16.03;;
44048;SDS011;29717;47.028;15.470;2022-12-07T14:05:23;19.03;;;14.73;;
44048;SDS011;29717;47.028;15.470;2022-12-07T14:07:55;24.77;;;15.83;;
44048;SDS011;29717;47.028;15.470;2022-12-07T14:10:23;20.80;;;16.30;;
44048;SDS011;29717;47.028;15.470;2022-12-07T14:12:51;20.10;;;15.97;;
44048;SDS011;29717;47.028;15.470;2022-12-07T14:15:19;23.30;;;16.30;;
44048;SDS011;29717;47.028;15.470;2022-12-07T14:17:50;21.80;;;16.80;;
44048;SDS011;29717;47.028;15.470;2022-12-07T14:20:31;21.53;;;16.00;;
44048;SDS011;29717;47.028;15.470;2022-12-07T14:22:59;20.13;;;14.60;;
44048;SDS011;29717;47.028;15.470;2022-12-07T14:25:43;24.07;;;15.93;;
44048;SDS011;29717;47.028;15.470;2022-12-07T14:28:24;19.63;;;15.53;;
44048;SDS011;29717;47.028;15.470;2022-12-07T14:30:51;21.90;;;15.37;;
44048;SDS011;29717;47.028;15.470;2022-12-07T14:33:18;21.50;;;16.07;;
44048;SDS011;29717;47.028;15.470;2022-12-07T14:35:46;29.87;;;17.30;;
44048;SDS011;29717;47.028;15.470;2022-12-07T14:38:14;22.60;;;16.17;;
44048;SDS011;29717;47.028;15.470;2022-12-07T14:40:43;18.53;;;15.73;;
44048;SDS011;29717;47.028;15.470;2022-12-07T14:43:11;19.83;;;14.93;;
44048;SDS011;29717;47.028;15.470;2022-12-07T14:45:39;18.23;;;14.80;;
44048;SDS011;29717;47.028;15.470;2022-12-07T14:48:07;19.43;;;15.17;;
44048;SDS011;29717;47.028;15.470;2022-12-07T14:50:35;21.63;;;15.37;;
44048;SDS011;29717;47.028;15.470;2022-12-07T14:53:03;26.50;;;15.73;;
44048;SDS011;29717;47.028;15.470;2022-12-07T14:55:34;23.70;;;16.37;;